Startpagina
METAR-TAF:

METAR-TAF

Vliegvelden :

Aeroporto da Madeira

Funchal, Madeira, Portugal

breedte: 32-41-52N, lengte: 016-46-28W, hoogte: 59 m

Actueel weer

Dit bericht is 24 minuten geleden gemaakt, om 10:30 UTC
Wind 16 kt uit het noordnoordoosten met uitschieters tot 26 kt
Temperatuur 23°C
Vochtigheid 53%
Druk 1024 hPa
Zicht 10 km of meer
Verspreide wolken op 1600 ft

METAR: LPMA 171030Z 02016G26KT 9999 SCT016 23/13 Q1024

Tijdstip: 11:54 (10:54 UTC)

Verwachting

Dit bericht is 5 uur en het 54 minuten geleden gemaakt, om 05:00 UTC
Verwachting geldig van 17 om 06 UTC tot 18 om 06 UTC
Wind 15 kt uit het noordnoordoosten
Zicht 10 km of meer
Verspreide wolken op 1500 ft
Tijdelijke
van 17 om 06 UTC tot 18 om 06 UTC
Wind 20 kt uit het noordnoordoosten met uitschieters tot 33 kt
Weinig wolken op 1500 ft
Gebroken wolken op 3000 ft

TAF: LPMA 170500Z 1706/1806 02015KT 9999 SCT015 TEMPO 1706/1806 02020G33KT FEW015 BKN030

Waarnemingen en weersverwachtingen van meer dan 4000 vliegvelden (METAR en TAF).

De beschikbare stations zijn de gele en rode punten op de kaart.

Ga met uw muis naar het station om de naam te zien.

Klik dan om waarnemingen en weersverwachtingen te zien.

kaart wijzigen: klik op de groene knoppen met een zwart kruis om in te zoomen, op de groene knop met een streepje om uit te zoomen of op de groene pijlen voor aangrenzende kaarten.


METAR-TAF: